sensor_id;sensor_type;location;lat;lon;timestamp;pressure;altitude;pressure_sealevel;temperature;humidity
20889;BME280;10604;51.976;7.594;2023-04-05T00:01:02;101726.72;;;3.25;70.97
20889;BME280;10604;51.976;7.594;2023-04-05T00:03:31;101721.34;;;3.14;70.70
20889;BME280;10604;51.976;7.594;2023-04-05T00:05:57;101718.50;;;3.01;70.91
20889;BME280;10604;51.976;7.594;2023-04-05T00:08:22;101723.81;;;3.07;70.56
20889;BME280;10604;51.976;7.594;2023-04-05T00:10:52;101718.50;;;3.01;71.11
20889;BME280;10604;51.976;7.594;2023-04-05T00:13:18;101719.25;;;2.94;70.74
20889;BME280;10604;51.976;7.594;2023-04-05T00:15:43;101718.25;;;2.86;71.39
20889;BME280;10604;51.976;7.594;2023-04-05T00:18:08;101716.44;;;2.82;71.67
20889;BME280;10604;51.976;7.594;2023-04-05T00:20:52;101711.16;;;2.75;71.90
20889;BME280;10604;51.976;7.594;2023-04-05T00:23:18;101711.16;;;2.75;71.99
20889;BME280;10604;51.976;7.594;2023-04-05T00:25:44;101702.31;;;2.67;72.07
20889;BME280;10604;51.976;7.594;2023-04-05T00:28:10;101708.34;;;2.65;72.17
20889;BME280;10604;51.976;7.594;2023-04-05T00:30:35;101709.94;;;2.58;72.11
20889;BME280;10604;51.976;7.594;2023-04-05T00:33:01;101695.19;;;2.57;72.76
20889;BME280;10604;51.976;7.594;2023-04-05T00:35:26;101700.28;;;2.51;73.19
20889;BME280;10604;51.976;7.594;2023-04-05T00:37:52;101704.53;;;2.46;73.18
20889;BME280;10604;51.976;7.594;2023-04-05T00:40:17;101703.72;;;2.50;73.09
20889;BME280;10604;51.976;7.594;2023-04-05T00:42:42;101688.81;;;2.40;73.27
20889;BME280;10604;51.976;7.594;2023-04-05T00:45:07;101694.84;;;2.39;73.15
20889;BME280;10604;51.976;7.594;2023-04-05T00:47:33;101692.22;;;2.38;73.39
20889;BME280;10604;51.976;7.594;2023-04-05T00:49:58;101696.50;;;2.34;73.78
20889;BME280;10604;51.976;7.594;2023-04-05T00:52:23;101694.50;;;2.21;74.18
20889;BME280;10604;51.976;7.594;2023-04-05T00:54:49;101683.25;;;2.22;74.26
20889;BME280;10604;51.976;7.594;2023-04-05T00:57:15;101684.81;;;2.14;74.51
20889;BME280;10604;51.976;7.594;2023-04-05T00:59:41;101690.06;;;2.15;74.39
20889;BME280;10604;51.976;7.594;2023-04-05T01:02:16;101689.16;;;2.15;74.30
20889;BME280;10604;51.976;7.594;2023-04-05T01:04:43;101691.75;;;2.13;73.80
20889;BME280;10604;51.976;7.594;2023-04-05T01:09:53;101691.00;;;2.19;73.87
20889;BME280;10604;51.976;7.594;2023-04-05T01:12:20;101697.78;;;2.11;74.17
20889;BME280;10604;51.976;7.594;2023-04-05T01:14:50;101695.91;;;2.04;74.36
20889;BME280;10604;51.976;7.594;2023-04-05T01:17:16;101697.59;;;2.02;74.30
20889;BME280;10604;51.976;7.594;2023-04-05T01:19:46;101689.59;;;1.92;74.58
20889;BME280;10604;51.976;7.594;2023-04-05T01:27:55;101671.97;;;1.79;75.17
20889;BME280;10604;51.976;7.594;2023-04-05T01:30:31;101671.03;;;1.74;74.68
20889;BME280;10604;51.976;7.594;2023-04-05T01:33:15;101664.97;;;1.75;75.41
20889;BME280;10604;51.976;7.594;2023-04-05T01:38:21;101664.97;;;1.75;75.23
20889;BME280;10604;51.976;7.594;2023-04-05T01:40:49;101668.28;;;1.68;74.94
20889;BME280;10604;51.976;7.594;2023-04-05T01:43:15;101662.06;;;1.60;75.72
20889;BME280;10604;51.976;7.594;2023-04-05T01:45:41;101664.50;;;1.52;75.53
20889;BME280;10604;51.976;7.594;2023-04-05T01:48:06;101663.59;;;1.52;75.75
20889;BME280;10604;51.976;7.594;2023-04-05T01:50:31;101660.09;;;1.50;75.94
20889;BME280;10604;51.976;7.594;2023-04-05T01:52:57;101654.97;;;1.53;76.14
20889;BME280;10604;51.976;7.594;2023-04-05T01:55:22;101660.28;;;1.59;76.34
20889;BME280;10604;51.976;7.594;2023-04-05T01:57:47;101657.59;;;1.54;75.80
20889;BME280;10604;51.976;7.594;2023-04-05T02:00:12;101654.88;;;1.50;76.40
20889;BME280;10604;51.976;7.594;2023-04-05T02:02:37;101654.84;;;1.47;76.76
20889;BME280;10604;51.976;7.594;2023-04-05T02:05:03;101661.72;;;1.45;76.68
20889;BME280;10604;51.976;7.594;2023-04-05T02:07:28;101642.56;;;1.40;77.12
20889;BME280;10604;51.976;7.594;2023-04-05T02:09:53;101645.19;;;1.41;77.04
20889;BME280;10604;51.976;7.594;2023-04-05T02:12:19;101652.88;;;1.37;77.04
20889;BME280;10604;51.976;7.594;2023-04-05T02:14:44;101644.19;;;1.36;77.21
20889;BME280;10604;51.976;7.594;2023-04-05T02:17:09;101640.81;;;1.39;76.91
20889;BME280;10604;51.976;7.594;2023-04-05T02:19:35;101644.25;;;1.38;76.84
20889;BME280;10604;51.976;7.594;2023-04-05T02:22:05;101638.84;;;1.29;77.41
20889;BME280;10604;51.976;7.594;2023-04-05T02:24:30;101645.69;;;1.25;77.41
20889;BME280;10604;51.976;7.594;2023-04-05T02:26:56;101650.84;;;1.24;77.24
20889;BME280;10604;51.976;7.594;2023-04-05T02:29:21;101647.28;;;1.18;77.16
20889;BME280;10604;51.976;7.594;2023-04-05T02:31:46;101653.94;;;1.07;77.36
20889;BME280;10604;51.976;7.594;2023-04-05T02:34:12;101650.50;;;1.08;77.51
20889;BME280;10604;51.976;7.594;2023-04-05T02:36:38;101662.50;;;1.03;77.89
20889;BME280;10604;51.976;7.594;2023-04-05T02:39:05;101653.88;;;1.04;77.61
20889;BME280;10604;51.976;7.594;2023-04-05T02:41:31;101653.69;;;0.97;77.73
20889;BME280;10604;51.976;7.594;2023-04-05T02:43:56;101653.78;;;1.01;77.63
20889;BME280;10604;51.976;7.594;2023-04-05T02:46:21;101645.16;;;1.02;77.74
20889;BME280;10604;51.976;7.594;2023-04-05T02:48:47;101639.19;;;1.05;77.70
20889;BME280;10604;51.976;7.594;2023-04-05T02:51:12;101641.72;;;1.03;77.21
20889;BME280;10604;51.976;7.594;2023-04-05T02:53:37;101634.50;;;0.90;77.11
20889;BME280;10604;51.976;7.594;2023-04-05T02:56:02;101629.16;;;0.84;77.62
20889;BME280;10604;51.976;7.594;2023-04-05T02:58:28;101631.91;;;0.90;77.72
20889;BME280;10604;51.976;7.594;2023-04-05T03:00:53;101629.19;;;0.86;77.79
20889;BME280;10604;51.976;7.594;2023-04-05T03:03:20;101632.47;;;0.77;77.94
20889;BME280;10604;51.976;7.594;2023-04-05T03:05:46;101635.13;;;0.80;78.04
20889;BME280;10604;51.976;7.594;2023-04-05T03:08:12;101632.59;;;0.83;77.78
20889;BME280;10604;51.976;7.594;2023-04-05T03:10:43;101629.16;;;0.84;77.88
20889;BME280;10604;51.976;7.594;2023-04-05T03:13:09;101629.81;;;0.75;77.79
20889;BME280;10604;51.976;7.594;2023-04-05T03:15:34;101634.09;;;0.73;78.14
20889;BME280;10604;51.976;7.594;2023-04-05T03:18:00;101626.16;;;0.67;78.37
20889;BME280;10604;51.976;7.594;2023-04-05T03:20:26;101623.38;;;0.60;78.50
20889;BME280;10604;51.976;7.594;2023-04-05T03:22:51;101623.38;;;0.60;78.57
20889;BME280;10604;51.976;7.594;2023-04-05T03:25:16;101625.22;;;0.64;78.58
20889;BME280;10604;51.976;7.594;2023-04-05T03:27:41;101623.47;;;0.63;78.32
20889;BME280;10604;51.976;7.594;2023-04-05T03:30:07;101628.56;;;0.60;78.59
20889;BME280;10604;51.976;7.594;2023-04-05T03:32:32;101628.41;;;0.54;78.48
20889;BME280;10604;51.976;7.594;2023-04-05T03:34:57;101619.72;;;0.52;78.51
20889;BME280;10604;51.976;7.594;2023-04-05T03:37:23;101618.19;;;0.60;78.53
20889;BME280;10604;51.976;7.594;2023-04-05T03:39:48;101630.22;;;0.58;78.24
20889;BME280;10604;51.976;7.594;2023-04-05T03:42:13;101627.44;;;0.49;78.57
20889;BME280;10604;51.976;7.594;2023-04-05T03:44:40;101626.50;;;0.47;78.67
20889;BME280;10604;51.976;7.594;2023-04-05T03:47:05;101629.69;;;0.36;78.90
20889;BME280;10604;51.976;7.594;2023-04-05T03:49:30;101627.25;;;0.41;78.73
20889;BME280;10604;51.976;7.594;2023-04-05T03:51:55;101621.31;;;0.47;78.85
20889;BME280;10604;51.976;7.594;2023-04-05T03:54:21;101617.81;;;0.45;78.39
20889;BME280;10604;51.976;7.594;2023-04-05T03:56:46;101624.69;;;0.43;78.68
20889;BME280;10604;51.976;7.594;2023-04-05T03:59:11;101622.94;;;0.42;79.05
20889;BME280;10604;51.976;7.594;2023-04-05T04:01:37;101621.09;;;0.37;79.47
20889;BME280;10604;51.976;7.594;2023-04-05T04:04:02;101619.41;;;0.39;79.38
20889;BME280;10604;51.976;7.594;2023-04-05T04:06:29;101618.44;;;0.34;79.07
20889;BME280;10604;51.976;7.594;2023-04-05T04:08:54;101617.75;;;0.42;78.81
20889;BME280;10604;51.976;7.594;2023-04-05T04:11:21;101612.31;;;0.32;78.99
20889;BME280;10604;51.976;7.594;2023-04-05T04:13:46;101608.09;;;0.37;79.06
20889;BME280;10604;51.976;7.594;2023-04-05T04:16:11;101606.44;;;0.39;79.06
20889;BME280;10604;51.976;7.594;2023-04-05T04:18:37;101610.69;;;0.37;78.77
20889;BME280;10604;51.976;7.594;2023-04-05T04:21:02;101607.38;;;0.42;78.84
20889;BME280;10604;51.976;7.594;2023-04-05T04:23:31;101610.78;;;0.41;78.47
20889;BME280;10604;51.976;7.594;2023-04-05T04:25:56;101613.25;;;0.34;78.92
20889;BME280;10604;51.976;7.594;2023-04-05T04:28:22;101614.13;;;0.36;78.54
20889;BME280;10604;51.976;7.594;2023-04-05T04:30:49;101615.00;;;0.37;78.64
20889;BME280;10604;51.976;7.594;2023-04-05T04:33:14;101612.22;;;0.29;78.64
20889;BME280;10604;51.976;7.594;2023-04-05T04:35:41;101608.72;;;0.27;78.39
20889;BME280;10604;51.976;7.594;2023-04-05T04:38:10;101609.41;;;0.20;78.67
20889;BME280;10604;51.976;7.594;2023-04-05T04:40:42;101615.50;;;0.22;78.77
20889;BME280;10604;51.976;7.594;2023-04-05T04:43:11;101608.56;;;0.21;78.59
20889;BME280;10604;51.976;7.594;2023-04-05T04:45:45;101607.66;;;0.19;78.86
20889;BME280;10604;51.976;7.594;2023-04-05T04:48:16;101607.66;;;0.19;78.90
20889;BME280;10604;51.976;7.594;2023-04-05T04:50:42;101599.88;;;0.19;78.69
20889;BME280;10604;51.976;7.594;2023-04-05T04:53:10;101603.31;;;0.18;78.88
20889;BME280;10604;51.976;7.594;2023-04-05T04:55:37;101601.53;;;0.17;78.74
20889;BME280;10604;51.976;7.594;2023-04-05T04:58:03;101610.97;;;0.15;78.67
20889;BME280;10604;51.976;7.594;2023-04-05T05:00:34;101603.06;;;0.09;78.75
20889;BME280;10604;51.976;7.594;2023-04-05T05:03:00;101606.66;;;0.14;79.16
20889;BME280;10604;51.976;7.594;2023-04-05T05:05:25;101607.44;;;0.12;79.20
20889;BME280;10604;51.976;7.594;2023-04-05T05:07:51;101596.09;;;0.08;79.57
20889;BME280;10604;51.976;7.594;2023-04-05T05:10:17;101595.44;;;0.15;79.36
20889;BME280;10604;51.976;7.594;2023-04-05T05:12:42;101601.38;;;0.11;79.00
20889;BME280;10604;51.976;7.594;2023-04-05T05:15:08;101606.66;;;0.14;78.85
20889;BME280;10604;51.976;7.594;2023-04-05T05:17:33;101603.16;;;0.12;78.66
20889;BME280;10604;51.976;7.594;2023-04-05T05:19:59;101599.47;;;0.04;78.81
20889;BME280;10604;51.976;7.594;2023-04-05T05:22:25;101611.59;;;0.05;79.03
20889;BME280;10604;51.976;7.594;2023-04-05T05:24:51;101610.00;;;0.10;79.01
20889;BME280;10604;51.976;7.594;2023-04-05T05:27:16;101608.41;;;0.15;79.05
20889;BME280;10604;51.976;7.594;2023-04-05T05:29:41;101600.66;;;0.17;79.04
20889;BME280;10604;51.976;7.594;2023-04-05T05:32:07;101599.88;;;0.19;78.82
20889;BME280;10604;51.976;7.594;2023-04-05T05:34:33;101598.22;;;0.21;79.35
20889;BME280;10604;51.976;7.594;2023-04-05T05:36:58;101601.69;;;0.23;79.12
20889;BME280;10604;51.976;7.594;2023-04-05T05:39:24;101610.31;;;0.22;79.13
20889;BME280;10604;51.976;7.594;2023-04-05T05:41:49;101606.88;;;0.23;79.22
20889;BME280;10604;51.976;7.594;2023-04-05T05:44:14;101608.78;;;0.30;79.55
20889;BME280;10604;51.976;7.594;2023-04-05T05:46:40;101610.41;;;0.25;79.32
20889;BME280;10604;51.976;7.594;2023-04-05T05:49:05;101613.19;;;0.33;79.40
20889;BME280;10604;51.976;7.594;2023-04-05T05:51:30;101615.06;;;0.38;79.60
20889;BME280;10604;51.976;7.594;2023-04-05T05:53:59;101615.97;;;0.41;79.47
20889;BME280;10604;51.976;7.594;2023-04-05T05:56:25;101615.06;;;0.38;80.07
20889;BME280;10604;51.976;7.594;2023-04-05T05:58:50;101621.22;;;0.44;80.31
20889;BME280;10604;51.976;7.594;2023-04-05T06:01:15;101610.22;;;0.52;80.33
20889;BME280;10604;51.976;7.594;2023-04-05T06:03:41;101611.09;;;0.53;80.41
20889;BME280;10604;51.976;7.594;2023-04-05T06:06:06;101614.66;;;0.58;79.99
20889;BME280;10604;51.976;7.594;2023-04-05T06:08:35;101611.31;;;0.62;80.08
20889;BME280;10604;51.976;7.594;2023-04-05T06:11:00;101609.31;;;0.52;79.91
20889;BME280;10604;51.976;7.594;2023-04-05T06:13:25;101609.59;;;0.62;79.85
20889;BME280;10604;51.976;7.594;2023-04-05T06:15:51;101608.25;;;0.78;80.22
20889;BME280;10604;51.976;7.594;2023-04-05T06:18:16;101614.38;;;0.82;80.13
20889;BME280;10604;51.976;7.594;2023-04-05T06:20:42;101601.81;;;0.98;79.33
20889;BME280;10604;51.976;7.594;2023-04-05T06:23:11;101600.34;;;1.11;77.73
20889;BME280;10604;51.976;7.594;2023-04-05T06:25:36;101601.50;;;1.24;77.49
20889;BME280;10604;51.976;7.594;2023-04-05T06:28:02;101606.19;;;1.40;76.98
20889;BME280;10604;51.976;7.594;2023-04-05T06:30:28;101600.47;;;1.56;76.72
20889;BME280;10604;51.976;7.594;2023-04-05T06:32:53;101602.47;;;1.71;75.82
20889;BME280;10604;51.976;7.594;2023-04-05T06:35:22;101605.97;;;1.73;76.35
20889;BME280;10604;51.976;7.594;2023-04-05T06:37:47;101613.81;;;1.74;75.82
20889;BME280;10604;51.976;7.594;2023-04-05T06:40:12;101617.66;;;1.93;75.10
20889;BME280;10604;51.976;7.594;2023-04-05T06:42:38;101619.56;;;2.02;74.49
20889;BME280;10604;51.976;7.594;2023-04-05T06:45:03;101612.91;;;2.17;74.24
20889;BME280;10604;51.976;7.594;2023-04-05T06:47:32;101611.28;;;2.24;73.68
20889;BME280;10604;51.976;7.594;2023-04-05T06:49:57;101610.56;;;2.31;73.49
20889;BME280;10604;51.976;7.594;2023-04-05T06:52:23;101613.44;;;2.46;72.11
20889;BME280;10604;51.976;7.594;2023-04-05T06:54:48;101609.19;;;2.53;72.16
20889;BME280;10604;51.976;7.594;2023-04-05T06:57:13;101606.13;;;2.78;71.01
20889;BME280;10604;51.976;7.594;2023-04-05T06:59:38;101612.50;;;2.97;70.52
20889;BME280;10604;51.976;7.594;2023-04-05T07:02:04;101610.97;;;3.11;70.04
20889;BME280;10604;51.976;7.594;2023-04-05T07:04:29;101610.22;;;3.18;71.04
20889;BME280;10604;51.976;7.594;2023-04-05T07:06:59;101607.84;;;3.36;70.56
20889;BME280;10604;51.976;7.594;2023-04-05T07:09:26;101609.72;;;3.46;70.19
20889;BME280;10604;51.976;7.594;2023-04-05T07:11:54;101604.78;;;3.68;70.50
20889;BME280;10604;51.976;7.594;2023-04-05T07:14:20;101598.00;;;3.82;69.11
20889;BME280;10604;51.976;7.594;2023-04-05T07:16:45;101601.66;;;3.99;68.54
20889;BME280;10604;51.976;7.594;2023-04-05T07:19:11;101603.50;;;4.12;68.18
20889;BME280;10604;51.976;7.594;2023-04-05T07:21:36;101598.44;;;4.24;66.92
20889;BME280;10604;51.976;7.594;2023-04-05T07:24:01;101599.47;;;4.40;67.64
20889;BME280;10604;51.976;7.594;2023-04-05T07:26:27;101595.25;;;4.59;67.47
20889;BME280;10604;51.976;7.594;2023-04-05T07:28:53;101590.09;;;4.65;66.62
20889;BME280;10604;51.976;7.594;2023-04-05T07:31:18;101590.97;;;4.70;66.63
20889;BME280;10604;51.976;7.594;2023-04-05T07:33:43;101598.91;;;4.79;66.24
20889;BME280;10604;51.976;7.594;2023-04-05T07:36:08;101589.41;;;4.89;65.54
20889;BME280;10604;51.976;7.594;2023-04-05T07:38:34;101587.75;;;5.03;65.03
20889;BME280;10604;51.976;7.594;2023-04-05T07:40:59;101579.13;;;5.22;65.11
20889;BME280;10604;51.976;7.594;2023-04-05T07:43:24;101582.75;;;5.45;63.18
20889;BME280;10604;51.976;7.594;2023-04-05T07:45:49;101584.53;;;5.59;62.12
20889;BME280;10604;51.976;7.594;2023-04-05T07:48:17;101581.16;;;5.82;61.91
20889;BME280;10604;51.976;7.594;2023-04-05T07:50:42;101581.22;;;6.13;62.21
20889;BME280;10604;51.976;7.594;2023-04-05T07:53:11;101585.63;;;6.23;60.63
20889;BME280;10604;51.976;7.594;2023-04-05T07:55:37;101585.63;;;6.29;59.35
20889;BME280;10604;51.976;7.594;2023-04-05T07:58:02;101584.78;;;6.44;59.39
20889;BME280;10604;51.976;7.594;2023-04-05T08:00:27;101578.66;;;6.67;59.83
20889;BME280;10604;51.976;7.594;2023-04-05T08:02:52;101573.34;;;7.04;58.49
20889;BME280;10604;51.976;7.594;2023-04-05T08:05:17;101582.09;;;7.09;57.51
20889;BME280;10604;51.976;7.594;2023-04-05T08:07:43;101584.72;;;6.97;57.15
20889;BME280;10604;51.976;7.594;2023-04-05T08:10:08;101579.41;;;7.36;54.37
20889;BME280;10604;51.976;7.594;2023-04-05T08:12:33;101578.47;;;7.46;53.31
20889;BME280;10604;51.976;7.594;2023-04-05T08:14:59;101582.00;;;7.45;53.85
20889;BME280;10604;51.976;7.594;2023-04-05T08:17:24;101578.41;;;7.65;52.06
20889;BME280;10604;51.976;7.594;2023-04-05T08:19:52;101574.84;;;7.81;51.88
20889;BME280;10604;51.976;7.594;2023-04-05T08:22:18;101568.63;;;7.94;51.52
20889;BME280;10604;51.976;7.594;2023-04-05T08:24:43;101567.72;;;7.98;50.35
20889;BME280;10604;51.976;7.594;2023-04-05T08:27:08;101562.25;;;8.38;51.83
20889;BME280;10604;51.976;7.594;2023-04-05T08:29:34;101560.13;;;8.76;51.52
20889;BME280;10604;51.976;7.594;2023-04-05T08:31:59;101560.72;;;9.06;50.39
20889;BME280;10604;51.976;7.594;2023-04-05T08:34:24;101567.16;;;8.77;49.89
20889;BME280;10604;51.976;7.594;2023-04-05T08:36:50;101562.88;;;8.66;50.18
20889;BME280;10604;51.976;7.594;2023-04-05T08:39:15;101561.88;;;8.77;49.52
20889;BME280;10604;51.976;7.594;2023-04-05T08:41:40;101561.59;;;9.04;48.86
20889;BME280;10604;51.976;7.594;2023-04-05T08:44:11;101551.94;;;9.08;49.76
20889;BME280;10604;51.976;7.594;2023-04-05T08:46:37;101563.13;;;9.27;48.77
20889;BME280;10604;51.976;7.594;2023-04-05T08:49:04;101577.00;;;9.38;48.14
20889;BME280;10604;51.976;7.594;2023-04-05T08:51:30;101573.16;;;9.66;48.07
20889;BME280;10604;51.976;7.594;2023-04-05T08:53:58;101569.59;;;9.70;46.60
20889;BME280;10604;51.976;7.594;2023-04-05T08:56:31;101568.75;;;9.68;46.02
20889;BME280;10604;51.976;7.594;2023-04-05T09:01:25;101557.22;;;9.78;45.81
20889;BME280;10604;51.976;7.594;2023-04-05T09:03:53;101566.63;;;9.95;45.90
20889;BME280;10604;51.976;7.594;2023-04-05T09:06:18;101570.22;;;10.50;45.33
20889;BME280;10604;51.976;7.594;2023-04-05T09:08:45;101570.16;;;11.04;44.49
20889;BME280;10604;51.976;7.594;2023-04-05T09:11:11;101565.59;;;11.12;44.44
20889;BME280;10604;51.976;7.594;2023-04-05T09:13:36;101568.22;;;11.57;43.60
20889;BME280;10604;51.976;7.594;2023-04-05T09:16:02;101579.66;;;12.00;42.66
20889;BME280;10604;51.976;7.594;2023-04-05T09:18:27;101562.31;;;12.61;40.23
20889;BME280;10604;51.976;7.594;2023-04-05T09:21:10;101559.38;;;12.72;39.34
20889;BME280;10604;51.976;7.594;2023-04-05T09:23:36;101557.13;;;12.92;39.14
20889;BME280;10604;51.976;7.594;2023-04-05T09:26:21;101560.44;;;13.63;40.12
20889;BME280;10604;51.976;7.594;2023-04-05T09:28:46;101557.94;;;13.57;38.87
20889;BME280;10604;51.976;7.594;2023-04-05T09:34:02;101552.63;;;14.16;39.27
20889;BME280;10604;51.976;7.594;2023-04-05T09:36:28;101557.19;;;14.40;37.44
20889;BME280;10604;51.976;7.594;2023-04-05T09:38:57;101548.47;;;14.63;37.71
20889;BME280;10604;51.976;7.594;2023-04-05T09:41:28;101549.44;;;15.10;37.11
20889;BME280;10604;51.976;7.594;2023-04-05T09:43:53;101543.69;;;15.22;37.15
20889;BME280;10604;51.976;7.594;2023-04-05T09:46:34;101543.03;;;15.41;36.59
20889;BME280;10604;51.976;7.594;2023-04-05T09:49:01;101550.41;;;15.57;35.20
20889;BME280;10604;51.976;7.594;2023-04-05T09:51:31;101547.09;;;15.97;35.04
20889;BME280;10604;51.976;7.594;2023-04-05T09:54:07;101546.81;;;15.58;33.69
20889;BME280;10604;51.976;7.594;2023-04-05T09:56:33;101551.72;;;16.36;33.89
20889;BME280;10604;51.976;7.594;2023-04-05T09:59:17;101550.47;;;16.01;33.40
20889;BME280;10604;51.976;7.594;2023-04-05T10:01:42;101542.56;;;15.99;34.73
20889;BME280;10604;51.976;7.594;2023-04-05T10:04:07;101543.06;;;16.31;33.21
20889;BME280;10604;51.976;7.594;2023-04-05T10:06:33;101552.13;;;16.27;33.41
20889;BME280;10604;51.976;7.594;2023-04-05T10:08:59;101541.44;;;16.49;34.04
20889;BME280;10604;51.976;7.594;2023-04-05T10:11:24;101533.13;;;16.56;32.10
20889;BME280;10604;51.976;7.594;2023-04-05T10:13:50;101530.72;;;16.50;32.31
20889;BME280;10604;51.976;7.594;2023-04-05T10:16:16;101533.03;;;16.37;33.38
20889;BME280;10604;51.976;7.594;2023-04-05T10:18:49;101532.13;;;16.80;32.34
20889;BME280;10604;51.976;7.594;2023-04-05T10:21:17;101534.13;;;17.16;30.85
20889;BME280;10604;51.976;7.594;2023-04-05T10:23:45;101527.94;;;17.34;31.20
20889;BME280;10604;51.976;7.594;2023-04-05T10:29:11;101523.56;;;17.13;30.38
20889;BME280;10604;51.976;7.594;2023-04-05T10:34:06;101524.72;;;17.07;30.10
20889;BME280;10604;51.976;7.594;2023-04-05T10:41:46;101517.19;;;17.93;30.62
20889;BME280;10604;51.976;7.594;2023-04-05T10:44:12;101514.59;;;17.54;30.70
20889;BME280;10604;51.976;7.594;2023-04-05T10:46:39;101505.03;;;17.30;31.18
20889;BME280;10604;51.976;7.594;2023-04-05T10:51:48;101511.53;;;18.18;30.32
20889;BME280;10604;51.976;7.594;2023-04-05T10:54:14;101512.69;;;17.56;30.82
20889;BME280;10604;51.976;7.594;2023-04-05T10:56:41;101500.47;;;17.71;29.72
20889;BME280;10604;51.976;7.594;2023-04-05T10:59:07;101503.28;;;18.23;28.53
20889;BME280;10604;51.976;7.594;2023-04-05T11:01:33;101496.31;;;18.37;28.94
20889;BME280;10604;51.976;7.594;2023-04-05T11:04:09;101493.78;;;18.17;29.82
20889;BME280;10604;51.976;7.594;2023-04-05T11:06:34;101487.81;;;18.29;29.32
20889;BME280;10604;51.976;7.594;2023-04-05T11:09:08;101495.13;;;19.12;29.14
20889;BME280;10604;51.976;7.594;2023-04-05T11:11:38;101485.63;;;19.06;28.84
20889;BME280;10604;51.976;7.594;2023-04-05T11:14:04;101488.25;;;19.24;28.63
20889;BME280;10604;51.976;7.594;2023-04-05T11:16:40;101481.41;;;18.85;27.41
20889;BME280;10604;51.976;7.594;2023-04-05T11:19:06;101478.88;;;18.99;28.71
20889;BME280;10604;51.976;7.594;2023-04-05T11:21:31;101479.78;;;19.15;27.14
20889;BME280;10604;51.976;7.594;2023-04-05T11:26:29;101482.16;;;19.04;28.98
20889;BME280;10604;51.976;7.594;2023-04-05T11:28:56;101488.34;;;18.89;29.38
20889;BME280;10604;51.976;7.594;2023-04-05T11:31:21;101479.00;;;18.27;29.57
20889;BME280;10604;51.976;7.594;2023-04-05T11:33:54;101471.47;;;18.35;27.74
20889;BME280;10604;51.976;7.594;2023-04-05T11:36:35;101474.31;;;18.50;28.31
20889;BME280;10604;51.976;7.594;2023-04-05T11:41:43;101470.97;;;19.13;28.49
20889;BME280;10604;51.976;7.594;2023-04-05T11:44:11;101460.34;;;18.45;27.77
20889;BME280;10604;51.976;7.594;2023-04-05T11:46:38;101453.25;;;18.44;29.42
20889;BME280;10604;51.976;7.594;2023-04-05T11:49:03;101465.53;;;18.82;28.25
20889;BME280;10604;51.976;7.594;2023-04-05T11:51:28;101467.44;;;18.80;27.39
20889;BME280;10604;51.976;7.594;2023-04-05T11:53:53;101453.25;;;18.44;28.08
20889;BME280;10604;51.976;7.594;2023-04-05T11:56:19;101450.38;;;18.12;27.22
20889;BME280;10604;51.976;7.594;2023-04-05T11:58:45;101436.84;;;17.81;29.09
20889;BME280;10604;51.976;7.594;2023-04-05T12:01:10;101440.44;;;17.80;28.52
20889;BME280;10604;51.976;7.594;2023-04-05T12:03:36;101443.50;;;18.08;29.21
20889;BME280;10604;51.976;7.594;2023-04-05T12:06:02;101444.31;;;18.79;27.59
20889;BME280;10604;51.976;7.594;2023-04-05T12:08:37;101437.13;;;19.12;28.44
20889;BME280;10604;51.976;7.594;2023-04-05T12:11:06;101432.84;;;19.10;26.94
20889;BME280;10604;51.976;7.594;2023-04-05T12:13:31;101429.81;;;18.83;26.21
20889;BME280;10604;51.976;7.594;2023-04-05T12:16:02;101428.66;;;18.54;26.97
20889;BME280;10604;51.976;7.594;2023-04-05T12:18:28;101423.03;;;18.60;27.73
20889;BME280;10604;51.976;7.594;2023-04-05T12:20:54;101432.75;;;18.78;27.99
20889;BME280;10604;51.976;7.594;2023-04-05T12:23:22;101426.78;;;19.06;26.12
20889;BME280;10604;51.976;7.594;2023-04-05T12:25:48;101430.94;;;19.12;28.57
20889;BME280;10604;51.976;7.594;2023-04-05T12:28:13;101419.97;;;19.81;26.54
20889;BME280;10604;51.976;7.594;2023-04-05T12:33:13;101418.94;;;19.52;26.64
20889;BME280;10604;51.976;7.594;2023-04-05T12:35:39;101414.78;;;19.62;26.86
20889;BME280;10604;51.976;7.594;2023-04-05T12:38:04;101417.84;;;19.23;27.43
20889;BME280;10604;51.976;7.594;2023-04-05T12:40:30;101412.22;;;19.28;27.59
20889;BME280;10604;51.976;7.594;2023-04-05T12:43:04;101406.78;;;20.08;25.99
20889;BME280;10604;51.976;7.594;2023-04-05T12:45:29;101403.31;;;20.06;26.54
20889;BME280;10604;51.976;7.594;2023-04-05T12:48:03;101401.75;;;20.61;26.14
20889;BME280;10604;51.976;7.594;2023-04-05T12:50:31;101409.75;;;21.20;25.91
20889;BME280;10604;51.976;7.594;2023-04-05T12:52:58;101406.66;;;20.83;26.09
20889;BME280;10604;51.976;7.594;2023-04-05T12:55:27;101405.59;;;20.57;24.45
20889;BME280;10604;51.976;7.594;2023-04-05T12:57:53;101398.63;;;19.79;28.13
20889;BME280;10604;51.976;7.594;2023-04-05T13:00:18;101393.34;;;19.62;27.70
20889;BME280;10604;51.976;7.594;2023-04-05T13:02:48;101391.84;;;20.33;25.40
20889;BME280;10604;51.976;7.594;2023-04-05T13:05:15;101383.97;;;20.01;25.32
20889;BME280;10604;51.976;7.594;2023-04-05T13:07:40;101386.69;;;20.15;26.29
20889;BME280;10604;51.976;7.594;2023-04-05T13:10:05;101385.09;;;19.67;26.24
20889;BME280;10604;51.976;7.594;2023-04-05T13:12:31;101375.31;;;21.12;24.91
20889;BME280;10604;51.976;7.594;2023-04-05T13:14:56;101378.38;;;20.35;25.07
20889;BME280;10604;51.976;7.594;2023-04-05T13:17:21;101376.84;;;19.85;25.33
20889;BME280;10604;51.976;7.594;2023-04-05T13:19:47;101378.75;;;20.13;25.29
20889;BME280;10604;51.976;7.594;2023-04-05T13:22:12;101379.13;;;20.37;25.98
20889;BME280;10604;51.976;7.594;2023-04-05T13:24:37;101368.16;;;20.56;26.74
20889;BME280;10604;51.976;7.594;2023-04-05T13:27:02;101375.25;;;20.99;25.35
20889;BME280;10604;51.976;7.594;2023-04-05T13:29:28;101371.72;;;20.85;25.45
20889;BME280;10604;51.976;7.594;2023-04-05T13:31:53;101370.84;;;21.27;24.38